Terminal Aerodrome Forecast
Issued by NWS Wilmington, OH

Current Version | Previous Version | Graphics & Text | Print | Product List | Glossary On
Versions: 1 2 3 4 5 6 7 8 9 10 11 12 13 14 15 16 17 18 19
000
FTUS41 KILN 270800 AAA
TAFCMH
TAF AMD
KCMH 270846Z 2709/2806 00000KT P6SM SCT015
     FM270900 00000KT P6SM -SN OVC015
      TEMPO 2709/2710 5SM -SN
     FM271200 30006KT P6SM SCT025 BKN035
     FM280000 33003KT P6SM FEW035 SCT200=

USA.gov is the U.S. government's official web portal to all federal, state and local government web resources and services.